Time;durP1;ratioP1;P1;durP2;ratioP2;P2;SDS_P1;SDS_P2;PMS_P1;PMS_P2;Temp;Humidity;BMP_temperature;BMP_pressure;BME280_temperature;BME280_humidity;BME280_pressure;Samples;Min_cycle;Max_cycle;Signal;HPM_P1;HPM_P2
2023/09/29 00:00:21;;;;;;;4.70;2.25;;;24.10;52.80;;;;;;5035987;28;20098;-58
2023/09/29 00:02:49;;;;;;;4.18;1.90;;;24.10;52.80;;;;;;5035300;28;20041;-58
2023/09/29 00:05:17;;;;;;;5.40;2.00;;;24.10;52.80;;;;;;5036393;28;20094;-59
2023/09/29 00:07:44;;;;;;;4.47;1.85;;;24.10;52.80;;;;;;5033937;28;20037;-58
2023/09/29 00:10:16;;;;;;;3.35;1.85;;;24.10;52.80;;;;;;5020241;28;20302;-60
2023/09/29 00:12:43;;;;;;;3.38;1.80;;;24.10;52.90;;;;;;5037763;28;20130;-60
2023/09/29 00:15:10;;;;;;;4.15;1.75;;;24.10;52.90;;;;;;5035962;28;20039;-59
2023/09/29 00:17:37;;;;;;;4.95;1.98;;;24.10;52.90;;;;;;5039486;28;20409;-58
2023/09/29 00:20:18;;;;;;;3.00;1.48;;;24.10;52.90;;;;;;5022459;28;20410;-57
2023/09/29 00:22:44;;;;;;;3.92;2.17;;;24.10;52.90;;;;;;5023022;28;20198;-57
2023/09/29 00:25:10;;;;;;;4.07;1.85;;;24.10;53.00;;;;;;5037059;28;20070;-57
2023/09/29 00:27:36;;;;;;;4.43;1.83;;;24.10;53.00;;;;;;5038949;28;20041;-61
2023/09/29 00:30:06;;;;;;;4.43;2.08;;;24.10;53.00;;;;;;5042141;28;20440;-56
2023/09/29 00:32:32;;;;;;;6.57;2.47;;;24.10;53.00;;;;;;5042736;28;20104;-58
2023/09/29 00:35:00;;;;;;;4.00;1.77;;;24.10;53.10;;;;;;5042839;28;20041;-59
2023/09/29 00:37:26;;;;;;;4.53;1.70;;;24.10;53.10;;;;;;5035652;28;20073;-59
2023/09/29 00:39:52;;;;;;;3.10;1.70;;;24.10;53.10;;;;;;5040480;28;20045;-57
2023/09/29 00:42:18;;;;;;;3.60;1.67;;;24.10;53.10;;;;;;5034504;28;20026;-59
2023/09/29 00:44:45;;;;;;;4.70;2.00;;;24.10;53.10;;;;;;5000951;28;20167;-60
2023/09/29 00:47:11;;;;;;;3.50;1.58;;;24.10;53.20;;;;;;5035349;28;20045;-58
2023/09/29 00:49:38;;;;;;;3.75;1.90;;;24.10;53.20;;;;;;5023384;28;20059;-58
2023/09/29 00:52:04;;;;;;;3.05;1.45;;;24.10;53.20;;;;;;5034659;28;20128;-59
2023/09/29 00:54:33;;;;;;;3.63;1.83;;;24.10;53.20;;;;;;5016291;28;20036;-54
2023/09/29 00:57:00;;;;;;;3.83;1.90;;;24.10;53.30;;;;;;5027858;28;20039;-60
2023/09/29 00:59:27;;;;;;;4.60;1.80;;;24.10;53.30;;;;;;5027241;28;20025;-59
2023/09/29 01:01:53;;;;;;;3.95;1.63;;;24.10;53.30;;;;;;5039764;28;20049;-56
2023/09/29 01:04:19;;;;;;;4.47;1.67;;;24.10;53.40;;;;;;5009162;28;20026;-60
2023/09/29 01:06:47;;;;;;;4.47;1.63;;;24.10;53.40;;;;;;5021799;28;20065;-58
2023/09/29 01:09:13;;;;;;;4.80;2.00;;;24.10;53.40;;;;;;5040356;28;20048;-60
2023/09/29 01:11:42;;;;;;;4.25;2.28;;;24.00;53.40;;;;;;5040172;28;21015;-57
2023/09/29 01:14:12;;;;;;;3.22;1.58;;;24.00;53.40;;;;;;5037522;28;20025;-57
2023/09/29 01:16:40;;;;;;;3.10;1.60;;;24.00;53.40;;;;;;5015465;28;20037;-59
2023/09/29 01:19:15;;;;;;;2.33;1.60;;;24.00;53.40;;;;;;5039958;28;20033;-60
2023/09/29 01:21:44;;;;;;;2.92;1.42;;;24.10;53.50;;;;;;5038203;28;20100;-59
2023/09/29 01:24:11;;;;;;;3.60;1.48;;;24.00;53.50;;;;;;5022580;28;20081;-60
2023/09/29 01:26:37;;;;;;;4.32;1.80;;;24.00;53.50;;;;;;5036238;28;20516;-57
2023/09/29 01:29:03;;;;;;;4.05;1.73;;;24.00;53.50;;;;;;5019960;28;20044;-60
2023/09/29 01:31:32;;;;;;;6.00;1.55;;;24.00;53.60;;;;;;5020650;28;20021;-60
2023/09/29 01:33:57;;;;;;;3.72;1.50;;;24.00;53.60;;;;;;5036834;28;20041;-61
2023/09/29 01:36:24;;;;;;;3.80;1.73;;;24.00;53.60;;;;;;5038614;28;20052;-59
2023/09/29 01:38:50;;;;;;;3.38;1.50;;;24.00;53.60;;;;;;5037192;28;20457;-55
2023/09/29 01:41:16;;;;;;;2.75;1.60;;;24.00;53.60;;;;;;5023145;28;20034;-60
2023/09/29 01:43:41;;;;;;;4.97;1.77;;;24.00;53.70;;;;;;5046117;28;20033;-60
2023/09/29 01:46:08;;;;;;;5.32;1.80;;;24.00;53.70;;;;;;5041993;28;20053;-60
2023/09/29 01:48:34;;;;;;;2.45;1.50;;;24.00;53.70;;;;;;5041841;28;20085;-57
2023/09/29 01:51:02;;;;;;;4.07;1.90;;;24.00;53.70;;;;;;5036245;28;20085;-61
2023/09/29 01:53:30;;;;;;;2.70;1.40;;;24.00;53.80;;;;;;5017786;28;20437;-60
2023/09/29 01:55:57;;;;;;;3.78;1.55;;;24.00;53.80;;;;;;5041805;28;20053;-60
2023/09/29 01:58:23;;;;;;;3.35;1.75;;;24.00;53.80;;;;;;5039306;28;20017;-54
2023/09/29 02:00:49;;;;;;;3.72;1.75;;;24.00;53.80;;;;;;5024395;28;20104;-60
2023/09/29 02:03:16;;;;;;;2.88;1.70;;;24.00;53.80;;;;;;5041917;28;20038;-60
2023/09/29 02:05:42;;;;;;;3.50;1.48;;;24.00;53.80;;;;;;5044936;28;20069;-59
2023/09/29 02:08:10;;;;;;;3.80;1.90;;;24.00;53.90;;;;;;5020928;28;20164;-60
2023/09/29 02:10:36;;;;;;;3.47;1.60;;;24.00;53.90;;;;;;5023761;28;20021;-57
2023/09/29 02:13:07;;;;;;;4.03;2.08;;;24.00;53.90;;;;;;5016699;28;20113;-54
2023/09/29 02:15:34;;;;;;;2.95;1.42;;;24.00;53.90;;;;;;5023859;28;20366;-59
2023/09/29 02:18:04;;;;;;;4.55;1.88;;;24.00;53.90;;;;;;5027062;28;20337;-58
2023/09/29 02:20:31;;;;;;;3.35;1.58;;;24.00;54.00;;;;;;5020004;28;20116;-60
2023/09/29 02:22:58;;;;;;;4.10;1.80;;;24.00;54.00;;;;;;5020594;28;20142;-60
2023/09/29 02:25:26;;;;;;;3.75;1.67;;;24.00;54.00;;;;;;5024162;28;20064;-59
2023/09/29 02:27:54;;;;;;;4.13;1.77;;;24.00;54.10;;;;;;5019958;28;20112;-59
2023/09/29 02:30:20;;;;;;;2.67;1.60;;;24.00;54.10;;;;;;5047997;28;20148;-57
2023/09/29 02:32:46;;;;;;;4.50;1.90;;;24.00;54.10;;;;;;5018878;28;20045;-59
2023/09/29 02:35:12;;;;;;;3.35;1.65;;;24.00;54.20;;;;;;5039055;28;20110;-60
2023/09/29 02:37:39;;;;;;;2.60;1.48;;;24.00;54.20;;;;;;5025704;28;20070;-57
2023/09/29 02:40:11;;;;;;;2.88;1.65;;;24.00;54.30;;;;;;5041263;28;20037;-59
2023/09/29 02:42:37;;;;;;;3.28;1.70;;;24.00;54.30;;;;;;5045205;28;20025;-58
2023/09/29 02:45:07;;;;;;;3.55;1.60;;;24.00;54.30;;;;;;5027216;28;20045;-57
2023/09/29 02:47:34;;;;;;;5.05;1.90;;;24.00;54.30;;;;;;5034953;28;20037;-60
2023/09/29 02:50:00;;;;;;;3.25;1.98;;;24.00;54.30;;;;;;5021239;28;20097;-58
2023/09/29 02:52:30;;;;;;;3.22;1.50;;;24.00;54.40;;;;;;5021824;28;20382;-59
2023/09/29 02:54:56;;;;;;;2.05;1.60;;;24.00;54.50;;;;;;5019311;28;20103;-56
2023/09/29 02:57:22;;;;;;;3.35;1.60;;;23.90;54.40;;;;;;5024063;28;20473;-61
2023/09/29 02:59:48;;;;;;;4.50;1.60;;;24.00;54.50;;;;;;5006735;28;20109;-56
2023/09/29 03:02:14;;;;;;;3.65;1.80;;;23.90;54.40;;;;;;5018094;28;20095;-62
2023/09/29 03:04:43;;;;;;;3.20;1.60;;;24.00;54.50;;;;;;5038217;28;20017;-61
2023/09/29 03:07:10;;;;;;;2.30;1.63;;;24.00;54.50;;;;;;5038003;28;20037;-60
2023/09/29 03:09:39;;;;;;;3.55;1.60;;;23.90;54.50;;;;;;5023588;28;20041;-58
2023/09/29 03:12:05;;;;;;;4.25;1.65;;;24.00;54.50;;;;;;5036977;28;20465;-60
2023/09/29 03:14:32;;;;;;;3.75;1.70;;;24.00;54.50;;;;;;5022549;28;20452;-55
2023/09/29 03:17:00;;;;;;;3.53;1.83;;;24.00;54.50;;;;;;5042682;28;20084;-59
2023/09/29 03:19:28;;;;;;;3.72;2.00;;;23.90;54.50;;;;;;5007253;28;20132;-58
2023/09/29 03:21:53;;;;;;;4.22;1.63;;;23.90;54.50;;;;;;5018684;28;20098;-57
2023/09/29 03:24:20;;;;;;;3.70;1.65;;;23.90;54.50;;;;;;5036532;28;20026;-57
2023/09/29 03:26:46;;;;;;;2.85;1.60;;;24.00;54.50;;;;;;5042409;28;21687;-57
2023/09/29 03:29:12;;;;;;;2.85;1.77;;;24.00;54.50;;;;;;5039165;28;20041;-59
2023/09/29 03:31:39;;;;;;;2.60;1.58;;;23.90;54.50;;;;;;5038543;28;20030;-59
2023/09/29 03:34:05;;;;;;;3.83;1.90;;;23.90;54.50;;;;;;5038253;28;20122;-59
2023/09/29 03:36:31;;;;;;;2.75;1.58;;;23.90;54.50;;;;;;5038420;28;20776;-58
2023/09/29 03:38:59;;;;;;;4.15;1.80;;;23.90;54.50;;;;;;5033250;28;20124;-57
2023/09/29 03:41:25;;;;;;;4.05;1.67;;;23.90;54.50;;;;;;5036559;28;20053;-58
2023/09/29 03:43:52;;;;;;;3.08;1.50;;;23.90;54.60;;;;;;5033260;28;20029;-61
2023/09/29 03:46:19;;;;;;;3.40;1.63;;;23.90;54.60;;;;;;5039098;28;20106;-61
2023/09/29 03:48:47;;;;;;;2.40;1.45;;;23.90;54.60;;;;;;5035327;28;20048;-59
2023/09/29 03:51:21;;;;;;;2.15;1.40;;;23.90;54.60;;;;;;5039692;28;20389;-62
2023/09/29 03:53:48;;;;;;;2.75;1.52;;;23.90;54.60;;;;;;5035378;28;20332;-60
2023/09/29 03:56:14;;;;;;;3.28;1.67;;;23.90;54.60;;;;;;5035555;28;20083;-61
2023/09/29 03:58:41;;;;;;;2.17;1.40;;;23.90;54.60;;;;;;5035590;28;20025;-59
2023/09/29 04:01:07;;;;;;;1.95;1.20;;;23.90;54.60;;;;;;5020218;28;20179;-61
2023/09/29 04:03:33;;;;;;;3.03;1.48;;;23.90;54.60;;;;;;5035023;28;20109;-56
2023/09/29 04:05:59;;;;;;;2.55;1.52;;;23.90;54.60;;;;;;5033044;28;20030;-60
2023/09/29 04:08:25;;;;;;;3.05;1.50;;;23.90;54.60;;;;;;5035497;28;20289;-60
2023/09/29 04:10:53;;;;;;;3.85;1.92;;;23.90;54.70;;;;;;5032909;28;20059;-60
2023/09/29 04:13:19;;;;;;;3.47;1.52;;;23.80;54.60;;;;;;5039714;28;20025;-58
2023/09/29 04:15:45;;;;;;;3.35;1.55;;;23.90;54.70;;;;;;5040884;28;20130;-60
2023/09/29 04:18:11;;;;;;;2.70;1.45;;;23.90;54.70;;;;;;5043822;28;20120;-58
2023/09/29 04:20:37;;;;;;;3.28;1.40;;;23.80;54.70;;;;;;5041193;28;20449;-61
2023/09/29 04:23:06;;;;;;;2.85;1.33;;;23.90;54.80;;;;;;5039548;28;20166;-60
2023/09/29 04:25:32;;;;;;;3.05;1.50;;;23.90;54.80;;;;;;5036664;28;20420;-59
2023/09/29 04:27:58;;;;;;;2.85;1.65;;;23.90;54.90;;;;;;5016832;28;20052;-57
2023/09/29 04:30:25;;;;;;;2.88;1.45;;;23.80;54.80;;;;;;5041297;28;20025;-55
2023/09/29 04:32:52;;;;;;;2.45;1.48;;;23.90;54.90;;;;;;5020995;28;20047;-58
2023/09/29 04:35:19;;;;;;;1.90;1.30;;;23.80;54.80;;;;;;5040726;28;20068;-57
2023/09/29 04:37:45;;;;;;;2.15;1.27;;;23.90;54.90;;;;;;5039285;28;20037;-58
2023/09/29 04:40:11;;;;;;;2.28;1.50;;;23.90;54.90;;;;;;5038156;28;20409;-52
2023/09/29 04:42:38;;;;;;;3.60;1.48;;;23.90;54.90;;;;;;5032927;28;20421;-56
2023/09/29 04:45:06;;;;;;;1.80;1.30;;;23.90;54.90;;;;;;5035766;28;20124;-56
2023/09/29 04:47:32;;;;;;;3.03;1.67;;;23.80;54.90;;;;;;5036087;28;20101;-58
2023/09/29 04:49:58;;;;;;;1.77;1.23;;;23.90;54.90;;;;;;5038796;28;20156;-55
2023/09/29 04:52:26;;;;;;;1.35;1.05;;;23.90;55.00;;;;;;5040075;28;20021;-60
2023/09/29 04:54:52;;;;;;;2.33;1.35;;;23.90;55.00;;;;;;5039642;28;20053;-58
2023/09/29 04:57:18;;;;;;;2.25;1.38;;;23.90;55.00;;;;;;5043729;28;20029;-59
2023/09/29 04:59:45;;;;;;;2.05;1.27;;;23.90;55.00;;;;;;5036400;28;20040;-61
2023/09/29 05:02:11;;;;;;;2.85;1.67;;;23.90;55.00;;;;;;5044707;28;20025;-59
2023/09/29 05:04:37;;;;;;;1.98;1.25;;;23.90;55.00;;;;;;5046907;28;20108;-54
2023/09/29 05:07:03;;;;;;;2.53;1.25;;;23.80;55.00;;;;;;5037614;28;20411;-60
2023/09/29 05:09:29;;;;;;;1.75;1.40;;;23.90;55.20;;;;;;5017685;28;20275;-59
2023/09/29 05:11:55;;;;;;;2.67;1.20;;;23.90;55.10;;;;;;5042392;28;20040;-59
2023/09/29 05:14:21;;;;;;;2.72;1.40;;;23.80;55.00;;;;;;5049558;28;20115;-60
2023/09/29 05:16:47;;;;;;;2.50;1.23;;;23.90;55.10;;;;;;5024615;28;20371;-59
2023/09/29 05:19:13;;;;;;;2.10;1.30;;;23.90;55.20;;;;;;5041729;28;20032;-57
2023/09/29 05:21:39;;;;;;;2.83;1.40;;;23.90;55.20;;;;;;5047650;28;20419;-58
2023/09/29 05:24:06;;;;;;;2.50;1.30;;;23.90;55.20;;;;;;5049842;28;20335;-61
2023/09/29 05:26:31;;;;;;;2.53;1.40;;;23.80;55.20;;;;;;5030886;28;20025;-59
2023/09/29 05:28:59;;;;;;;2.83;1.38;;;23.90;55.30;;;;;;5045726;28;20355;-59
2023/09/29 05:31:26;;;;;;;2.30;1.20;;;23.80;55.30;;;;;;5046845;28;20041;-60
2023/09/29 05:33:54;;;;;;;1.98;1.23;;;23.90;55.30;;;;;;5048800;28;20540;-59
2023/09/29 05:36:22;;;;;;;4.57;1.40;;;23.90;55.40;;;;;;5045443;28;20030;-60
2023/09/29 05:38:49;;;;;;;3.00;1.38;;;23.90;55.40;;;;;;5049546;28;20110;-59
2023/09/29 05:41:15;;;;;;;1.95;1.40;;;23.90;55.50;;;;;;5047226;28;20033;-58
2023/09/29 05:43:41;;;;;;;2.65;1.65;;;23.80;55.40;;;;;;5025313;28;20437;-59
2023/09/29 05:46:07;;;;;;;1.77;1.42;;;23.90;55.60;;;;;;5047980;28;20132;-60
2023/09/29 05:48:33;;;;;;;2.63;1.60;;;23.90;55.60;;;;;;5048499;28;20332;-56
2023/09/29 05:51:00;;;;;;;1.88;1.27;;;23.80;55.60;;;;;;5047873;28;20039;-54
2023/09/29 05:53:26;;;;;;;3.15;1.20;;;23.80;55.60;;;;;;5050040;28;20017;-58
2023/09/29 05:55:52;;;;;;;1.90;1.23;;;23.80;55.70;;;;;;5048779;28;20021;-59
2023/09/29 05:58:20;;;;;;;1.55;1.13;;;23.90;55.80;;;;;;5045675;28;20432;-58
2023/09/29 06:00:46;;;;;;;1.65;1.27;;;23.80;55.70;;;;;;5047325;28;20408;-60
2023/09/29 06:03:12;;;;;;;2.17;1.13;;;23.80;55.80;;;;;;5049348;28;20413;-57
2023/09/29 06:05:38;;;;;;;1.50;0.98;;;23.90;55.90;;;;;;5048184;28;20086;-56
2023/09/29 06:08:04;;;;;;;2.30;1.45;;;23.90;56.00;;;;;;5042572;28;20045;-59
2023/09/29 06:10:30;;;;;;;2.28;1.40;;;23.90;56.00;;;;;;5046710;28;20047;-59
2023/09/29 06:12:56;;;;;;;1.77;1.20;;;23.90;56.00;;;;;;5049777;28;20392;-58
2023/09/29 06:15:22;;;;;;;1.92;1.38;;;23.90;56.10;;;;;;5048041;28;20017;-59
2023/09/29 06:17:48;;;;;;;4.47;1.20;;;23.90;56.10;;;;;;5045914;28;20568;-60
2023/09/29 06:20:14;;;;;;;1.42;1.00;;;23.80;56.10;;;;;;5048515;28;20088;-53
2023/09/29 06:22:39;;;;;;;1.83;1.02;;;23.90;56.20;;;;;;5048686;28;20025;-58
2023/09/29 06:25:06;;;;;;;2.03;1.35;;;23.90;56.20;;;;;;5030726;28;20040;-58
2023/09/29 06:27:31;;;;;;;1.90;1.10;;;23.90;56.30;;;;;;5044884;28;20466;-57
2023/09/29 06:29:57;;;;;;;1.42;1.05;;;23.90;56.30;;;;;;5047680;28;20059;-58
2023/09/29 06:32:23;;;;;;;1.67;1.10;;;23.90;56.30;;;;;;5045286;28;20028;-54
2023/09/29 06:34:49;;;;;;;2.00;1.00;;;23.90;56.40;;;;;;5048580;28;20051;-58
2023/09/29 06:37:15;;;;;;;1.80;1.20;;;23.90;56.40;;;;;;5048022;28;20336;-61
2023/09/29 06:39:41;;;;;;;4.75;1.15;;;23.90;56.40;;;;;;5034993;28;20127;-61
2023/09/29 06:42:07;;;;;;;2.08;1.25;;;23.90;56.50;;;;;;5045421;28;20024;-58
2023/09/29 06:44:33;;;;;;;2.58;1.35;;;23.90;56.50;;;;;;5021226;28;20128;-57
2023/09/29 06:46:59;;;;;;;1.85;1.30;;;23.90;56.50;;;;;;5048200;28;20021;-61
2023/09/29 06:49:25;;;;;;;1.63;1.23;;;23.90;56.60;;;;;;5047231;28;20366;-58
2023/09/29 06:51:51;;;;;;;1.73;1.00;;;23.90;56.70;;;;;;5047709;28;20021;-57
2023/09/29 06:54:17;;;;;;;2.13;1.33;;;23.90;56.70;;;;;;5046406;28;20502;-52
2023/09/29 06:56:43;;;;;;;1.73;1.17;;;23.90;56.70;;;;;;5048409;28;20077;-59
2023/09/29 06:59:09;;;;;;;2.38;1.60;;;23.90;56.70;;;;;;5045857;28;20068;-58
2023/09/29 07:01:36;;;;;;;1.45;1.05;;;23.90;56.80;;;;;;5025988;28;20099;-59
2023/09/29 07:04:03;;;;;;;2.45;1.05;;;23.90;56.80;;;;;;5046258;28;20367;-58
2023/09/29 07:06:29;;;;;;;2.50;1.13;;;23.90;56.80;;;;;;5023990;28;20503;-60
2023/09/29 07:08:54;;;;;;;2.22;1.13;;;23.90;56.90;;;;;;5041550;28;20107;-59
2023/09/29 07:11:20;;;;;;;1.65;1.10;;;23.90;56.90;;;;;;5045269;28;20032;-59
2023/09/29 07:13:46;;;;;;;2.30;1.33;;;23.90;56.90;;;;;;5047288;28;20029;-57
2023/09/29 07:16:13;;;;;;;2.65;1.40;;;23.90;57.00;;;;;;5022409;28;20033;-61
2023/09/29 07:18:41;;;;;;;2.92;1.10;;;23.90;57.10;;;;;;5042440;28;20425;-59
2023/09/29 07:21:07;;;;;;;1.85;1.20;;;23.90;57.10;;;;;;5040900;28;20052;-59
2023/09/29 07:23:34;;;;;;;2.63;1.40;;;23.90;57.20;;;;;;5047182;28;20025;-57
2023/09/29 07:26:00;;;;;;;2.47;1.10;;;24.00;57.30;;;;;;5043497;28;20444;-58
2023/09/29 07:28:26;;;;;;;1.92;1.17;;;23.90;57.20;;;;;;5029909;28;20565;-59
2023/09/29 07:30:52;;;;;;;2.28;1.10;;;24.00;57.40;;;;;;5045351;28;20121;-59
2023/09/29 07:33:18;;;;;;;2.78;1.35;;;23.90;57.40;;;;;;5047584;28;20045;-60
2023/09/29 07:35:44;;;;;;;3.00;1.00;;;24.00;57.50;;;;;;5045897;28;20085;-60
2023/09/29 07:38:11;;;;;;;2.25;1.17;;;23.90;57.50;;;;;;5048747;28;20079;-55
2023/09/29 07:40:38;;;;;;;1.73;1.10;;;24.00;57.60;;;;;;5046160;28;20044;-58
2023/09/29 07:43:04;;;;;;;2.05;1.20;;;24.00;57.70;;;;;;5044983;28;20116;-60
2023/09/29 07:45:32;;;;;;;2.85;1.15;;;24.00;57.70;;;;;;5047048;28;20025;-63
2023/09/29 07:47:58;;;;;;;2.15;1.15;;;24.00;57.80;;;;;;5047463;28;20100;-62
2023/09/29 07:50:24;;;;;;;2.72;1.40;;;24.00;57.80;;;;;;5043728;28;20401;-59
2023/09/29 07:52:50;;;;;;;2.60;1.08;;;24.00;57.80;;;;;;5046643;28;20021;-62
2023/09/29 07:55:16;;;;;;;2.03;1.40;;;24.00;57.90;;;;;;5046678;28;20041;-62
2023/09/29 07:57:41;;;;;;;2.65;1.30;;;24.00;57.90;;;;;;5028872;28;20097;-65
2023/09/29 08:00:15;;;;;;;1.85;1.08;;;24.00;58.00;;;;;;5010507;28;20047;-63
2023/09/29 08:02:43;;;;;;;1.75;1.00;;;24.00;58.10;;;;;;5041873;28;20037;-68
2023/09/29 08:05:12;;;;;;;1.63;1.17;;;24.00;58.10;;;;;;5045949;28;20467;-62
2023/09/29 08:07:39;;;;;;;1.90;1.10;;;24.00;58.10;;;;;;5044968;28;20363;-62
2023/09/29 08:10:06;;;;;;;1.40;1.00;;;24.00;58.20;;;;;;5026273;28;20044;-64
2023/09/29 08:12:32;;;;;;;2.08;1.10;;;24.00;58.20;;;;;;5046361;28;20036;-66
2023/09/29 08:14:58;;;;;;;3.17;1.00;;;24.10;58.30;;;;;;5042884;28;20145;-64
2023/09/29 08:17:26;;;;;;;3.45;1.10;;;24.00;58.30;;;;;;5042534;28;20037;-62
2023/09/29 08:19:51;;;;;;;1.90;1.02;;;24.00;58.30;;;;;;5045437;28;20032;-65
2023/09/29 08:22:17;;;;;;;3.10;1.20;;;24.00;58.40;;;;;;5028488;28;20044;-65
2023/09/29 08:24:43;;;;;;;2.80;1.38;;;24.10;58.40;;;;;;5041743;28;20104;-58
2023/09/29 08:27:09;;;;;;;1.88;1.15;;;24.10;58.50;;;;;;5040682;28;20155;-68
2023/09/29 08:29:35;;;;;;;1.83;0.93;;;24.10;58.50;;;;;;5042086;28;20037;-63
2023/09/29 08:32:01;;;;;;;2.55;1.17;;;24.10;58.50;;;;;;5038485;28;20254;-63
2023/09/29 08:34:34;;;;;;;1.50;1.13;;;24.10;58.60;;;;;;5041677;28;20049;-65
2023/09/29 08:37:00;;;;;;;2.13;1.08;;;24.10;58.60;;;;;;5033181;28;20030;-63
2023/09/29 08:39:26;;;;;;;2.17;1.15;;;24.10;58.60;;;;;;5027690;28;20040;-65
2023/09/29 08:42:05;;;;;;;1.73;1.10;;;24.10;58.70;;;;;;5042666;28;20037;-62
2023/09/29 08:44:33;;;;;;;1.85;1.10;;;24.10;58.70;;;;;;5038046;28;20100;-63
2023/09/29 08:47:01;;;;;;;2.35;1.30;;;24.10;58.70;;;;;;5056331;28;20037;-65
2023/09/29 08:49:28;;;;;;;1.65;1.00;;;24.10;58.80;;;;;;5055194;28;20044;-63
2023/09/29 08:51:55;;;;;;;1.95;1.10;;;24.10;58.80;;;;;;5037659;28;20030;-61
2023/09/29 08:54:23;;;;;;;1.35;1.10;;;24.10;58.80;;;;;;5055248;28;20056;-63
2023/09/29 08:56:50;;;;;;;1.20;0.90;;;24.20;58.90;;;;;;5045220;28;20163;-62
2023/09/29 08:59:17;;;;;;;2.63;1.10;;;24.20;58.90;;;;;;5037276;28;20021;-62
2023/09/29 09:01:43;;;;;;;1.90;1.10;;;24.20;58.90;;;;;;5056149;28;20029;-61
2023/09/29 09:04:09;;;;;;;2.00;1.00;;;24.20;58.90;;;;;;5036655;28;20033;-63
2023/09/29 09:06:35;;;;;;;1.58;1.00;;;24.20;58.90;;;;;;5054274;28;20374;-66
2023/09/29 09:09:02;;;;;;;2.65;1.52;;;24.20;59.00;;;;;;5053035;28;20524;-62
2023/09/29 09:11:28;;;;;;;2.45;1.10;;;24.20;59.60;;;;;;5054956;28;20116;-62
2023/09/29 09:13:59;;;;;;;2.20;1.13;;;24.20;59.00;;;;;;5054246;28;20025;-64
2023/09/29 09:16:29;;;;;;;1.67;0.90;;;24.20;59.00;;;;;;5036860;28;20486;-63
2023/09/29 09:18:55;;;;;;;1.42;1.02;;;24.20;59.00;;;;;;5033206;28;20089;-65
2023/09/29 09:21:33;;;;;;;2.38;1.10;;;24.20;59.10;;;;;;5035397;28;20217;-60
2023/09/29 09:23:59;;;;;;;1.92;0.95;;;24.30;59.20;;;;;;5051022;28;20043;-64
2023/09/29 09:26:28;;;;;;;1.08;0.98;;;24.30;59.20;;;;;;5047503;28;20029;-59
2023/09/29 09:28:54;;;;;;;2.47;1.17;;;24.30;59.20;;;;;;5045363;28;20492;-58
2023/09/29 09:31:20;;;;;;;1.35;1.02;;;24.30;59.20;;;;;;5043838;28;20115;-58
2023/09/29 09:33:53;;;;;;;2.20;1.15;;;24.30;58.90;;;;;;5046940;28;20409;-63
2023/09/29 09:36:19;;;;;;;2.63;1.10;;;24.30;58.80;;;;;;5038312;28;20056;-62
2023/09/29 09:38:47;;;;;;;1.55;1.10;;;24.30;58.90;;;;;;5040593;28;20104;-58
2023/09/29 09:41:15;;;;;;;1.50;1.00;;;24.30;59.00;;;;;;5042215;28;20033;-60
2023/09/29 09:43:43;;;;;;;1.70;0.98;;;24.30;59.00;;;;;;5036208;28;20048;-61
2023/09/29 09:46:12;;;;;;;1.88;1.05;;;24.30;59.00;;;;;;5035821;28;20036;-64
2023/09/29 09:48:55;;;;;;;1.75;1.30;;;24.30;59.00;;;;;;5053265;28;20072;-59
2023/09/29 09:51:32;;;;;;;1.75;1.10;;;24.40;59.00;;;;;;5031680;28;20325;-60
2023/09/29 09:54:04;;;;;;;1.60;1.08;;;24.40;59.00;;;;;;5011006;28;20412;-60
2023/09/29 09:56:45;;;;;;;1.83;1.08;;;24.40;59.00;;;;;;5050134;28;20037;-62
2023/09/29 09:59:14;;;;;;;2.10;1.15;;;24.40;59.00;;;;;;5030150;28;20124;-61
2023/09/29 10:01:40;;;;;;;1.98;1.23;;;24.50;58.90;;;;;;5016671;28;20110;-53
2023/09/29 10:04:08;;;;;;;1.40;1.00;;;24.60;58.90;;;;;;5017383;28;20029;-59
2023/09/29 10:06:35;;;;;;;3.28;1.30;;;24.70;58.80;;;;;;5017385;28;20107;-59
2023/09/29 10:09:10;;;;;;;1.92;1.20;;;24.70;58.60;;;;;;5046365;28;20190;-57
2023/09/29 10:11:42;;;;;;;2.83;1.30;;;24.80;58.50;;;;;;5053297;28;20043;-60
2023/09/29 10:14:09;;;;;;;2.92;1.05;;;24.90;58.30;;;;;;5054860;28;20029;-58
2023/09/29 10:16:36;;;;;;;2.90;1.35;;;25.00;58.20;;;;;;5053716;28;20163;-62
2023/09/29 10:19:12;;;;;;;3.83;1.20;;;25.00;58.00;;;;;;5033239;28;20122;-62
2023/09/29 10:21:46;;;;;;;2.38;1.33;;;25.10;57.90;;;;;;5025690;28;20337;-63
2023/09/29 10:24:27;;;;;;;2.45;1.40;;;25.20;57.90;;;;;;5020064;28;20045;-62
2023/09/29 10:27:04;;;;;;;4.05;1.25;;;25.20;57.60;;;;;;5033206;28;20033;-61
2023/09/29 10:29:35;;;;;;;1.50;1.02;;;25.30;57.60;;;;;;5036012;28;20102;-61
2023/09/29 10:32:10;;;;;;;2.03;1.17;;;25.40;57.50;;;;;;5050274;28;20041;-59
2023/09/29 10:34:37;;;;;;;3.72;1.70;;;25.40;57.40;;;;;;5041470;28;20145;-62
2023/09/29 10:37:03;;;;;;;2.72;1.60;;;25.50;57.30;;;;;;5034049;28;20108;-61
2023/09/29 10:39:30;;;;;;;2.95;1.38;;;25.50;57.20;;;;;;5041344;28;20110;-61
2023/09/29 10:42:12;;;;;;;2.05;1.13;;;25.50;57.10;;;;;;5043690;28;20099;-60
2023/09/29 10:44:52;;;;;;;2.72;1.30;;;25.50;56.90;;;;;;5043935;28;20693;-65
2023/09/29 10:47:36;;;;;;;2.83;1.30;;;25.60;56.90;;;;;;5046427;28;20029;-63
2023/09/29 10:50:11;;;;;;;1.90;1.00;;;25.60;56.70;;;;;;5046881;28;20064;-62
2023/09/29 10:52:37;;;;;;;2.15;1.20;;;25.60;56.60;;;;;;5046867;28;20029;-59
2023/09/29 10:55:04;;;;;;;2.63;0.98;;;25.60;56.60;;;;;;5047878;28;20063;-63
2023/09/29 10:57:30;;;;;;;2.42;1.10;;;25.60;56.60;;;;;;5035605;28;20417;-59
2023/09/29 11:00:01;;;;;;;2.00;1.05;;;25.60;56.70;;;;;;5039315;28;20096;-63
2023/09/29 11:02:32;;;;;;;3.47;1.40;;;25.60;56.80;;;;;;5034216;28;20029;-61
2023/09/29 11:05:07;;;;;;;1.83;1.10;;;25.50;56.90;;;;;;5045539;28;20021;-60
2023/09/29 11:07:50;;;;;;;2.67;1.20;;;25.50;57.00;;;;;;5025990;28;20095;-62
2023/09/29 11:10:20;;;;;;;2.03;1.25;;;25.50;57.20;;;;;;5052678;28;20025;-64
2023/09/29 11:12:47;;;;;;;2.10;1.13;;;25.40;57.30;;;;;;5042253;28;20034;-61
2023/09/29 11:15:15;;;;;;;2.10;1.30;;;25.40;57.40;;;;;;5032750;28;20116;-61
2023/09/29 11:17:44;;;;;;;4.00;1.40;;;25.30;57.50;;;;;;5039489;28;20235;-61
2023/09/29 11:20:16;;;;;;;2.67;1.30;;;25.30;57.60;;;;;;5052323;28;20024;-61
2023/09/29 11:22:45;;;;;;;2.08;1.17;;;25.30;57.70;;;;;;5052356;28;20113;-62
2023/09/29 11:25:19;;;;;;;2.22;1.05;;;25.30;57.80;;;;;;5034794;28;20317;-60
2023/09/29 11:27:52;;;;;;;2.40;1.05;;;25.20;57.80;;;;;;5052290;28;20051;-63
2023/09/29 11:30:24;;;;;;;1.70;1.00;;;25.20;57.90;;;;;;5033402;28;20435;-63
2023/09/29 11:32:53;;;;;;;1.77;0.90;;;25.20;58.00;;;;;;5051124;28;20067;-60
2023/09/29 11:35:21;;;;;;;2.83;0.98;;;25.20;58.00;;;;;;5051662;28;20037;-63
2023/09/29 11:37:47;;;;;;;1.50;1.00;;;25.10;58.00;;;;;;5013527;28;20097;-60
2023/09/29 11:40:16;;;;;;;1.98;1.00;;;25.10;58.10;;;;;;5045714;28;20402;-62
2023/09/29 11:42:45;;;;;;;1.58;1.00;;;25.10;58.20;;;;;;5045197;28;20041;-63
2023/09/29 11:45:11;;;;;;;1.63;0.93;;;25.10;58.40;;;;;;5034583;28;20041;-63
2023/09/29 11:47:44;;;;;;;3.10;1.05;;;25.10;58.50;;;;;;5026077;28;20041;-61
2023/09/29 11:50:11;;;;;;;2.15;1.13;;;25.00;58.50;;;;;;5011465;28;20108;-62
2023/09/29 11:52:41;;;;;;;2.15;1.10;;;25.00;58.60;;;;;;5046102;28;20037;-61
2023/09/29 11:55:14;;;;;;;2.05;1.20;;;25.00;58.70;;;;;;5032245;28;20055;-63
2023/09/29 11:57:40;;;;;;;2.67;1.00;;;25.00;58.90;;;;;;5050360;28;20032;-63
2023/09/29 12:00:14;;;;;;;2.67;1.10;;;25.00;58.90;;;;;;5025882;28;20102;-61
2023/09/29 12:02:40;;;;;;;1.60;1.17;;;25.00;59.00;;;;;;5038888;28;20360;-62
2023/09/29 12:05:07;;;;;;;2.35;1.25;;;25.00;59.10;;;;;;5014183;28;20045;-61
2023/09/29 12:07:33;;;;;;;2.53;1.10;;;25.00;59.10;;;;;;5037912;28;20372;-64
2023/09/29 12:10:00;;;;;;;3.20;1.00;;;25.00;59.20;;;;;;5041030;28;20025;-59
2023/09/29 12:12:26;;;;;;;1.70;1.00;;;25.00;59.30;;;;;;5021525;28;20135;-61
2023/09/29 12:14:53;;;;;;;1.65;1.10;;;25.00;59.40;;;;;;5045977;28;20021;-62
2023/09/29 12:17:20;;;;;;;3.97;0.90;;;25.00;59.40;;;;;;5040014;28;20085;-60
2023/09/29 12:19:46;;;;;;;3.03;1.05;;;25.00;59.50;;;;;;5037725;28;20429;-59
2023/09/29 12:22:13;;;;;;;2.15;1.15;;;24.90;59.50;;;;;;5041417;28;20018;-60
2023/09/29 12:24:40;;;;;;;1.85;0.98;;;24.90;59.70;;;;;;5039866;28;20498;-65
2023/09/29 12:27:10;;;;;;;2.92;0.90;;;25.00;59.90;;;;;;5027405;28;20330;-63
2023/09/29 12:29:37;;;;;;;2.15;1.10;;;25.00;59.90;;;;;;5042231;28;20131;-64
2023/09/29 12:32:03;;;;;;;1.52;0.90;;;25.00;59.80;;;;;;5043666;28;20031;-64
2023/09/29 12:34:34;;;;;;;2.08;1.20;;;25.10;59.80;;;;;;5044452;28;20052;-63
2023/09/29 12:37:01;;;;;;;1.95;1.02;;;25.20;59.80;;;;;;5041246;28;20036;-61
2023/09/29 12:39:27;;;;;;;2.28;1.00;;;25.20;59.70;;;;;;5037862;28;20029;-63
2023/09/29 12:41:53;;;;;;;3.00;1.23;;;25.30;59.60;;;;;;5017019;28;20364;-61
2023/09/29 12:44:23;;;;;;;1.40;0.90;;;25.30;59.50;;;;;;5040998;28;20088;-64
2023/09/29 12:46:50;;;;;;;1.42;0.85;;;25.40;59.40;;;;;;5044858;28;20025;-61
2023/09/29 12:49:16;;;;;;;1.25;0.85;;;25.50;59.30;;;;;;5042050;28;20066;-61